createdAt,value
2018-08-24T00:00:17.381Z,99554.48
2018-08-24T00:02:48.526Z,99556.09
2018-08-24T00:05:19.483Z,99551.88
2018-08-24T00:07:50.489Z,99559.42
2018-08-24T00:10:21.530Z,99556.42
2018-08-24T00:12:53.233Z,99559.16
2018-08-24T00:15:24.372Z,99555.94
2018-08-24T00:17:55.577Z,99556.09
2018-08-24T00:20:26.485Z,99554.30
2018-08-24T00:22:57.504Z,99555.78
2018-08-24T00:25:29.289Z,99550.49
2018-08-24T00:28:00.397Z,99552.55
2018-08-24T00:30:31.457Z,99556.78
2018-08-24T00:33:02.461Z,99558.67
2018-08-24T00:35:33.487Z,99555.14
2018-08-24T00:38:05.563Z,99555.14
2018-08-24T00:40:36.580Z,99550.05
2018-08-24T00:43:07.559Z,99549.02
2018-08-24T00:45:38.494Z,99554.72
2018-08-24T00:48:09.586Z,99544.59
2018-08-24T00:50:40.477Z,99551.42
2018-08-24T00:53:12.298Z,99550.55
2018-08-24T00:55:43.515Z,99541.80
2018-08-24T00:58:14.500Z,99537.66
2018-08-24T01:00:45.679Z,99533.11
2018-08-24T01:03:16.576Z,99524.45
2018-08-24T01:05:47.460Z,99539.78
2018-08-24T01:08:18.503Z,99539.17
2018-08-24T01:10:49.537Z,99548.98
2018-08-24T01:13:20.513Z,99556.72
2018-08-24T01:18:29.248Z,99565.14
2018-08-24T01:21:00.452Z,99569.41
2018-08-24T01:23:32.781Z,99570.54
2018-08-24T01:26:03.598Z,99569.98
2018-08-24T01:28:34.523Z,99564.66
2018-08-24T01:31:07.388Z,99564.66
2018-08-24T01:33:38.761Z,99564.66
2018-08-24T01:36:09.546Z,99564.78
2018-08-24T01:38:40.511Z,99561.43
2018-08-24T01:41:11.475Z,99565.05
2018-08-24T01:43:42.484Z,99559.37
2018-08-24T01:46:15.318Z,99562.97
2018-08-24T01:48:46.380Z,99559.60
2018-08-24T01:51:17.513Z,99554.06
2018-08-24T01:53:48.673Z,99557.32
2018-08-24T01:56:19.532Z,99553.30
2018-08-24T01:58:50.599Z,99550.00
2018-08-24T02:01:21.498Z,99549.61
2018-08-24T02:03:52.535Z,99545.55
2018-08-24T02:06:23.530Z,99541.30
2018-08-24T02:08:54.514Z,99544.48
2018-08-24T02:11:30.595Z,99546.43
2018-08-24T02:14:06.797Z,99542.31
2018-08-24T02:16:38.441Z,99544.10
2018-08-24T02:19:17.645Z,99544.88
2018-08-24T02:21:53.533Z,99545.20
2018-08-24T02:24:24.539Z,99547.14
2018-08-24T02:26:55.609Z,99550.47
2018-08-24T02:29:26.499Z,99554.19
2018-08-24T02:31:57.483Z,99559.41
2018-08-24T02:37:14.505Z,99552.52
2018-08-24T02:39:45.523Z,99549.71
2018-08-24T02:42:16.497Z,99549.49
2018-08-24T02:44:47.538Z,99546.19
2018-08-24T02:47:18.494Z,99547.52
2018-08-24T02:49:49.521Z,99539.52
2018-08-24T02:52:20.487Z,99529.70
2018-08-24T02:54:51.535Z,99529.17
2018-08-24T02:57:22.515Z,99524.09
2018-08-24T02:59:53.494Z,99531.69
2018-08-24T03:02:24.514Z,99534.77
2018-08-24T03:04:55.501Z,99538.23
2018-08-24T03:07:26.783Z,99540.30
2018-08-24T03:09:57.657Z,99538.23
2018-08-24T03:12:28.566Z,99541.03
2018-08-24T03:14:59.538Z,99541.47
2018-08-24T03:17:35.684Z,99541.36
2018-08-24T03:20:06.573Z,99544.63
2018-08-24T03:22:37.510Z,99537.30
2018-08-24T03:25:08.566Z,99536.02
2018-08-24T03:27:39.534Z,99534.09
2018-08-24T03:30:10.493Z,99536.52
2018-08-24T03:32:41.493Z,99540.17
2018-08-24T03:35:12.534Z,99538.45
2018-08-24T03:37:43.477Z,99534.23
2018-08-24T03:40:14.529Z,99530.53
2018-08-24T03:42:45.481Z,99536.45
2018-08-24T03:45:16.565Z,99535.84
2018-08-24T03:47:47.506Z,99536.22
2018-08-24T03:50:18.501Z,99529.70
2018-08-24T03:52:49.511Z,99536.84
2018-08-24T03:55:20.509Z,99544.59
2018-08-24T03:57:51.550Z,99543.34
2018-08-24T04:00:22.506Z,99535.81
2018-08-24T04:02:53.554Z,99547.09
2018-08-24T04:05:24.525Z,99544.69
2018-08-24T04:07:55.493Z,99548.94
2018-08-24T04:10:27.323Z,99544.58
2018-08-24T04:12:58.651Z,99547.38
2018-08-24T04:15:29.506Z,99544.37
2018-08-24T04:18:00.506Z,99549.25
2018-08-24T04:20:31.521Z,99544.48
2018-08-24T04:23:02.523Z,99554.18
2018-08-24T04:25:33.537Z,99557.80
2018-08-24T04:28:04.503Z,99557.41
2018-08-24T04:30:35.493Z,99560.17
2018-08-24T04:33:06.559Z,99560.92
2018-08-24T04:35:37.614Z,99561.72
2018-08-24T04:38:08.560Z,99560.09
2018-08-24T04:40:39.494Z,99558.85
2018-08-24T04:43:10.519Z,99567.52
2018-08-24T04:45:41.570Z,99569.28
2018-08-24T04:48:12.565Z,99567.11
2018-08-24T04:50:43.505Z,99568.55
2018-08-24T04:53:14.540Z,99574.23
2018-08-24T04:55:45.508Z,99578.36
2018-08-24T04:58:16.541Z,99575.26
2018-08-24T05:02:49.490Z,99575.59
2018-08-24T05:05:20.528Z,99582.63
2018-08-24T05:07:51.492Z,99588.39
2018-08-24T05:10:22.555Z,99582.72
2018-08-24T05:12:53.503Z,99595.58
2018-08-24T05:15:24.490Z,99589.17
2018-08-24T05:17:55.609Z,99589.73
2018-08-24T05:20:26.694Z,99603.93
2018-08-24T05:22:57.552Z,99601.04
2018-08-24T05:25:28.495Z,99606.83
2018-08-24T05:27:59.609Z,99598.27
2018-08-24T05:30:30.520Z,99607.66
2018-08-24T05:33:01.545Z,99611.81
2018-08-24T05:35:32.544Z,99610.34
2018-08-24T05:38:03.537Z,99606.91
2018-08-24T05:40:34.482Z,99610.55
2018-08-24T05:43:05.519Z,99613.45
2018-08-24T05:45:36.495Z,99615.89
2018-08-24T05:48:07.537Z,99618.40
2018-08-24T05:50:38.444Z,99615.09
2018-08-24T05:53:10.472Z,99613.66
2018-08-24T05:55:41.690Z,99618.31
2018-08-24T05:58:12.567Z,99626.27
2018-08-24T06:00:46.375Z,99625.50
2018-08-24T06:03:17.575Z,99632.41
2018-08-24T06:05:53.708Z,99633.75
2018-08-24T06:08:24.557Z,99633.97
2018-08-24T06:10:55.473Z,99635.50
2018-08-24T06:13:26.513Z,99633.34
2018-08-24T06:15:57.493Z,99635.31
2018-08-24T06:18:28.518Z,99636.86
2018-08-24T06:20:59.501Z,99638.20
2018-08-24T06:23:30.512Z,99640.69
2018-08-24T06:26:01.496Z,99640.98
2018-08-24T06:28:32.536Z,99649.87
2018-08-24T06:31:03.497Z,99650.40
2018-08-24T06:33:34.489Z,99647.90
2018-08-24T06:36:05.577Z,99645.89
2018-08-24T06:38:36.552Z,99646.41
2018-08-24T06:41:07.903Z,99649.82
2018-08-24T06:43:38.841Z,99648.97
2018-08-24T06:46:09.805Z,99656.72
2018-08-24T06:48:40.610Z,99653.52
2018-08-24T06:51:11.485Z,99654.15
2018-08-24T06:53:42.578Z,99664.57
2018-08-24T06:56:13.576Z,99657.67
2018-08-24T06:58:45.287Z,99673.23
2018-08-24T07:01:15.428Z,99673.08
2018-08-24T07:03:46.486Z,99670.45
2018-08-24T07:06:17.501Z,99673.57
2018-08-24T07:08:48.498Z,99677.50
2018-08-24T07:11:19.500Z,99678.71
2018-08-24T07:13:51.407Z,99682.23
2018-08-24T07:16:22.467Z,99693.03
2018-08-24T07:18:53.521Z,99700.98
2018-08-24T07:21:24.589Z,99707.80
2018-08-24T07:23:55.607Z,99716.59
2018-08-24T07:26:26.525Z,99708.23
2018-08-24T07:28:57.475Z,99709.98
2018-08-24T07:31:28.437Z,99711.86
2018-08-24T07:33:59.588Z,99710.75
2018-08-24T07:36:30.625Z,99705.53
2018-08-24T07:39:01.506Z,99706.36
2018-08-24T07:41:32.568Z,99697.92
2018-08-24T07:44:03.505Z,99702.72
2018-08-24T07:46:35.290Z,99700.39
2018-08-24T07:49:07.223Z,99698.34
2018-08-24T07:51:38.863Z,99702.64
2018-08-24T07:54:09.674Z,99710.19
2018-08-24T07:56:40.537Z,99711.48
2018-08-24T07:59:11.529Z,99717.58
2018-08-24T08:01:42.550Z,99729.08
2018-08-24T08:04:13.569Z,99730.12
2018-08-24T08:06:44.505Z,99727.94
2018-08-24T08:09:15.601Z,99728.59
2018-08-24T08:11:46.510Z,99732.34
2018-08-24T08:14:17.510Z,99739.05
2018-08-24T08:16:53.185Z,99741.70
2018-08-24T08:19:24.345Z,99747.91
2018-08-24T08:21:55.486Z,99741.66
2018-08-24T08:24:26.514Z,99742.75
2018-08-24T08:26:57.507Z,99746.12
2018-08-24T08:29:33.768Z,99749.36
2018-08-24T08:32:04.574Z,99744.84
2018-08-24T08:34:39.365Z,99753.17
2018-08-24T08:37:10.445Z,99745.77
2018-08-24T08:39:41.452Z,99744.59
2018-08-24T08:42:12.486Z,99756.76
2018-08-24T08:44:43.489Z,99759.46
2018-08-24T08:47:14.641Z,99747.29
2018-08-24T08:49:45.627Z,99749.37
2018-08-24T08:52:16.463Z,99757.63
2018-08-24T08:54:47.432Z,99758.02
2018-08-24T08:57:18.444Z,99752.45
2018-08-24T08:59:49.746Z,99761.89
2018-08-24T09:02:20.581Z,99767.95
2018-08-24T09:04:51.484Z,99769.70
2018-08-24T09:07:22.489Z,99771.92
2018-08-24T09:09:53.515Z,99771.84
2018-08-24T09:12:24.529Z,99773.77
2018-08-24T09:14:55.465Z,99782.50
2018-08-24T09:17:31.689Z,99786.68
2018-08-24T09:20:07.665Z,99801.13
2018-08-24T09:23:45.318Z,99812.63
2018-08-24T09:26:22.924Z,99827.64
2018-08-24T09:28:54.829Z,99826.41
2018-08-24T09:31:32.288Z,99826.22
2018-08-24T09:34:03.387Z,99836.76
2018-08-24T09:36:34.477Z,99853.67
2018-08-24T09:39:08.381Z,99858.97
2018-08-24T09:41:39.494Z,99857.42
2018-08-24T09:44:10.486Z,99852.58
2018-08-24T09:46:46.536Z,99854.08
2018-08-24T09:49:22.642Z,99864.83
2018-08-24T09:51:53.578Z,99865.60
2018-08-24T09:54:24.548Z,99866.75
2018-08-24T09:56:55.584Z,99863.25
2018-08-24T09:59:26.556Z,99858.34
2018-08-24T10:02:03.002Z,99868.35
2018-08-24T10:05:42.028Z,99864.41
2018-08-24T10:08:18.368Z,99858.41
2018-08-24T10:10:49.491Z,99846.70
2018-08-24T10:13:20.615Z,99853.44
2018-08-24T10:15:51.521Z,99862.54
2018-08-24T10:18:22.482Z,99857.45
2018-08-24T10:20:53.503Z,99859.52
2018-08-24T10:23:24.515Z,99862.50
2018-08-24T10:25:55.494Z,99857.41
2018-08-24T10:28:26.513Z,99855.84
2018-08-24T10:30:57.527Z,99843.50
2018-08-24T10:33:28.506Z,99838.39
2018-08-24T10:35:59.497Z,99841.19
2018-08-24T10:38:30.511Z,99849.02
2018-08-24T10:41:01.567Z,99843.10
2018-08-24T10:43:32.496Z,99829.95
2018-08-24T10:46:03.542Z,99836.07
2018-08-24T10:48:34.539Z,99834.20
2018-08-24T10:51:05.562Z,99833.55
2018-08-24T10:53:41.440Z,99840.69
2018-08-24T10:56:12.550Z,99846.78
2018-08-24T10:58:43.490Z,99831.77
2018-08-24T11:01:14.487Z,99831.80
2018-08-24T11:03:45.520Z,99821.25
2018-08-24T11:06:16.468Z,99821.03
2018-08-24T11:08:48.293Z,99805.98
2018-08-24T11:11:18.410Z,99803.83
2018-08-24T11:13:49.477Z,99813.84
2018-08-24T11:16:20.490Z,99814.77
2018-08-24T11:18:51.501Z,99816.02
2018-08-24T11:21:22.502Z,99809.70
2018-08-24T11:23:53.525Z,99795.76
2018-08-24T11:26:24.482Z,99794.28
2018-08-24T11:28:55.594Z,99793.29
2018-08-24T11:31:26.538Z,99799.19
2018-08-24T11:33:57.543Z,99790.35
2018-08-24T11:36:28.534Z,99800.72
2018-08-24T11:38:59.583Z,99807.41
2018-08-24T11:52:25.467Z,99781.88
2018-08-24T11:54:56.496Z,99770.55
2018-08-24T11:57:27.510Z,99773.17
2018-08-24T11:59:58.525Z,99764.13
2018-08-24T12:02:29.591Z,99763.25
2018-08-24T12:05:00.526Z,99765.73
2018-08-24T12:07:31.844Z,99764.28
2018-08-24T12:10:03.214Z,99756.72
2018-08-24T12:12:34.817Z,99764.28
2018-08-24T12:15:05.667Z,99761.30
2018-08-24T12:17:38.030Z,99754.83
2018-08-24T12:20:09.833Z,99748.06
2018-08-24T12:22:40.620Z,99747.41
2018-08-24T12:25:11.490Z,99744.02
2018-08-24T12:27:42.510Z,99740.16
2018-08-24T12:30:13.505Z,99750.20
2018-08-24T12:32:44.583Z,99746.34
2018-08-24T12:35:15.552Z,99749.11
2018-08-24T12:37:47.443Z,99754.86
2018-08-24T12:40:18.845Z,99742.66
2018-08-24T12:42:49.728Z,99738.02
2018-08-24T12:45:20.611Z,99739.74
2018-08-24T12:47:51.525Z,99735.38
2018-08-24T12:50:22.511Z,99736.44
2018-08-24T12:52:53.540Z,99733.91
2018-08-24T12:55:24.531Z,99736.79
2018-08-24T12:57:55.557Z,99737.30
2018-08-24T13:00:26.546Z,99732.63
2018-08-24T13:02:57.535Z,99734.44
2018-08-24T13:05:28.529Z,99716.52
2018-08-24T13:07:59.493Z,99719.39
2018-08-24T13:10:30.626Z,99719.34
2018-08-24T13:13:01.602Z,99708.11
2018-08-24T13:15:32.498Z,99710.22
2018-08-24T13:18:03.533Z,99696.19
2018-08-24T13:20:34.571Z,99702.88
2018-08-24T13:23:05.536Z,99698.04
2018-08-24T13:25:36.561Z,99699.16
2018-08-24T13:28:07.502Z,99697.84
2018-08-24T13:30:38.538Z,99694.34
2018-08-24T13:33:09.816Z,99693.61
2018-08-24T13:35:41.033Z,99689.16
2018-08-24T13:38:12.394Z,99682.00
2018-08-24T13:40:43.484Z,99685.91
2018-08-24T13:43:14.514Z,99695.34
2018-08-24T13:45:45.551Z,99684.66
2018-08-24T13:48:16.592Z,99680.07
2018-08-24T13:50:47.577Z,99676.72
2018-08-24T13:53:18.627Z,99668.59
2018-08-24T13:55:49.671Z,99662.73
2018-08-24T13:58:20.747Z,99668.80
2018-08-24T14:03:35.607Z,99642.87
2018-08-24T14:06:06.542Z,99651.70
2018-08-24T14:08:37.585Z,99659.85
2018-08-24T14:11:08.705Z,99647.66
2018-08-24T14:13:39.639Z,99639.12
2018-08-24T14:16:10.574Z,99639.42
2018-08-24T14:18:41.556Z,99647.00
2018-08-24T14:21:12.614Z,99645.80
2018-08-24T14:23:43.568Z,99637.34
2018-08-24T14:26:14.558Z,99634.56
2018-08-24T14:28:45.494Z,99633.41
2018-08-24T14:31:16.557Z,99624.74
2018-08-24T14:33:47.560Z,99627.10
2018-08-24T14:36:18.512Z,99624.74
2018-08-24T14:38:49.554Z,99623.75
2018-08-24T14:41:20.526Z,99620.25
2018-08-24T14:43:51.535Z,99625.17
2018-08-24T14:46:22.665Z,99621.34
2018-08-24T14:48:54.430Z,99626.27
2018-08-24T14:51:25.550Z,99618.42
2018-08-24T14:53:57.037Z,99624.33
2018-08-24T14:56:28.454Z,99613.29
2018-08-24T14:58:59.654Z,99615.80
2018-08-24T15:01:30.589Z,99619.66
2018-08-24T15:04:01.610Z,99615.72
2018-08-24T15:06:32.698Z,99613.05
2018-08-24T15:09:03.626Z,99617.35
2018-08-24T15:11:34.517Z,99620.70
2018-08-24T15:14:05.548Z,99620.66
2018-08-24T15:16:36.588Z,99620.99
2018-08-24T15:19:08.187Z,99614.48
2018-08-24T15:21:39.375Z,99619.72
2018-08-24T15:24:10.442Z,99623.02
2018-08-24T15:26:41.517Z,99621.24
2018-08-24T15:29:12.554Z,99618.23
2018-08-24T15:31:43.499Z,99608.41
2018-08-24T15:34:14.534Z,99607.56
2018-08-24T15:36:45.635Z,99606.09
2018-08-24T15:39:16.525Z,99602.49
2018-08-24T15:41:47.518Z,99599.41
2018-08-24T15:44:18.527Z,99598.20
2018-08-24T15:46:50.453Z,99600.39
2018-08-24T15:49:21.545Z,99602.50
2018-08-24T15:51:52.513Z,99596.27
2018-08-24T15:54:23.523Z,99600.31
2018-08-24T15:56:54.659Z,99596.27
2018-08-24T15:59:25.615Z,99601.14
2018-08-24T16:01:56.534Z,99599.93
2018-08-24T16:04:27.580Z,99598.80
2018-08-24T16:06:58.535Z,99605.01
2018-08-24T16:09:29.509Z,99602.95
2018-08-24T16:12:00.490Z,99599.70
2018-08-24T16:14:31.489Z,99604.25
2018-08-24T16:17:02.517Z,99599.48
2018-08-24T16:19:33.438Z,99599.61
2018-08-24T16:22:04.535Z,99601.97
2018-08-24T16:24:35.805Z,99606.52
2018-08-24T16:27:08.591Z,99605.16
2018-08-24T16:29:39.591Z,99605.27
2018-08-24T16:32:10.518Z,99606.20
2018-08-24T16:34:41.539Z,99606.62
2018-08-24T16:37:12.550Z,99605.47
2018-08-24T16:39:43.497Z,99616.37
2018-08-24T16:42:14.523Z,99612.11
2018-08-24T16:44:45.862Z,99613.20
2018-08-24T16:47:17.025Z,99607.96
2018-08-24T16:49:48.536Z,99615.80
2018-08-24T16:52:19.484Z,99611.20
2018-08-24T16:54:50.503Z,99613.94
2018-08-24T16:57:21.472Z,99617.47
2018-08-24T16:59:52.497Z,99615.73
2018-08-24T17:02:23.579Z,99613.52
2018-08-24T17:04:54.562Z,99616.31
2018-08-24T17:07:25.509Z,99616.18
2018-08-24T17:09:56.523Z,99617.30
2018-08-24T17:12:28.278Z,99618.81
2018-08-24T17:14:58.401Z,99623.56
2018-08-24T17:17:29.479Z,99623.65
2018-08-24T17:20:01.248Z,99623.97
2018-08-24T17:22:31.395Z,99624.98
2018-08-24T17:25:02.496Z,99631.52
2018-08-24T17:27:33.532Z,99622.36
2018-08-24T17:30:04.541Z,99631.34
2018-08-24T17:32:35.573Z,99627.41
2018-08-24T17:35:07.328Z,99628.88
2018-08-24T17:37:38.513Z,99632.58
2018-08-24T17:40:09.504Z,99632.75
2018-08-24T17:42:40.819Z,99631.34
2018-08-24T17:45:11.812Z,99633.20
2018-08-24T17:47:43.022Z,99628.30
2018-08-24T17:50:14.445Z,99633.49
2018-08-24T17:52:45.582Z,99637.64
2018-08-24T17:55:16.477Z,99637.31
2018-08-24T17:57:47.542Z,99643.42
2018-08-24T18:00:18.639Z,99653.38
2018-08-24T18:02:50.424Z,99655.66
2018-08-24T18:05:21.641Z,99658.28
2018-08-24T18:07:52.572Z,99656.41
2018-08-24T18:10:23.511Z,99660.34
2018-08-24T18:12:54.501Z,99665.82
2018-08-24T18:15:25.458Z,99669.12
2018-08-24T18:17:56.504Z,99675.54
2018-08-24T18:20:27.584Z,99669.85
2018-08-24T18:22:58.501Z,99669.97
2018-08-24T18:25:29.513Z,99672.34
2018-08-24T18:28:00.509Z,99673.70
2018-08-24T18:30:31.640Z,99680.41
2018-08-24T18:33:02.651Z,99671.11
2018-08-24T18:35:33.596Z,99670.78
2018-08-24T18:38:04.846Z,99673.02
2018-08-24T18:40:36.018Z,99673.37
2018-08-24T18:43:07.391Z,99677.67
2018-08-24T18:45:38.562Z,99681.20
2018-08-24T18:48:09.481Z,99682.84
2018-08-24T18:50:40.618Z,99691.20
2018-08-24T18:53:11.569Z,99684.30
2018-08-24T18:55:42.599Z,99689.27
2018-08-24T18:58:13.617Z,99705.27
2018-08-24T19:00:44.592Z,99706.81
2018-08-24T19:03:15.619Z,99708.00
2018-08-24T19:05:46.639Z,99704.52
2018-08-24T19:08:17.542Z,99711.02
2018-08-24T19:10:53.719Z,99725.96
2018-08-24T19:13:24.856Z,99729.36
2018-08-24T19:15:56.026Z,99735.03
2018-08-24T19:18:32.394Z,99737.50
2018-08-24T19:21:09.021Z,99731.50
2018-08-24T19:23:40.399Z,99735.17
2018-08-24T19:26:11.528Z,99738.92
2018-08-24T19:28:47.601Z,99741.37
2018-08-24T19:31:18.590Z,99738.98
2018-08-24T19:33:49.630Z,99740.23
2018-08-24T19:36:20.603Z,99752.39
2018-08-24T19:38:51.474Z,99757.84
2018-08-24T19:41:27.673Z,99760.80
2018-08-24T19:43:58.660Z,99763.92
2018-08-24T19:46:29.619Z,99766.38
2018-08-24T19:49:05.531Z,99761.03
2018-08-24T19:51:36.502Z,99759.48
2018-08-24T19:54:07.494Z,99760.94
2018-08-24T19:56:38.572Z,99761.23
2018-08-24T19:59:11.181Z,99765.97
2018-08-24T20:01:42.471Z,99765.97
2018-08-24T20:04:13.554Z,99764.83
2018-08-24T20:06:49.722Z,99771.24
2018-08-24T20:09:25.645Z,99771.62
2018-08-24T20:11:56.554Z,99774.04
2018-08-24T20:14:32.679Z,99779.28
2018-08-24T20:17:08.706Z,99774.56
2018-08-24T20:19:39.548Z,99777.30
2018-08-24T20:22:11.285Z,99781.84
2018-08-24T20:24:42.497Z,99779.45
2018-08-24T20:27:13.629Z,99781.50
2018-08-24T20:29:44.663Z,99785.52
2018-08-24T20:32:15.590Z,99787.77
2018-08-24T20:34:46.617Z,99791.42
2018-08-24T20:37:17.545Z,99792.46
2018-08-24T20:39:48.502Z,99792.17
2018-08-24T20:42:19.748Z,99786.03
2018-08-24T20:44:50.693Z,99786.36
2018-08-24T20:47:22.189Z,99792.66
2018-08-24T20:49:55.237Z,99788.44
2018-08-24T20:52:26.449Z,99781.73
2018-08-24T20:54:57.536Z,99788.84
2018-08-24T20:57:28.519Z,99783.82
2018-08-24T20:59:59.558Z,99787.34
2018-08-24T21:02:30.505Z,99794.05
2018-08-24T21:05:01.484Z,99793.24
2018-08-24T21:07:32.510Z,99791.23
2018-08-24T21:10:03.490Z,99791.23
2018-08-24T21:12:35.230Z,99787.41
2018-08-24T21:15:06.439Z,99798.54
2018-08-24T21:17:37.422Z,99793.61
2018-08-24T21:20:08.474Z,99792.34
2018-08-24T21:22:39.474Z,99791.97
2018-08-24T21:25:11.292Z,99784.16
2018-08-24T21:27:43.016Z,99784.16
2018-08-24T21:30:14.353Z,99779.56
2018-08-24T21:32:45.387Z,99775.88
2018-08-24T21:35:16.493Z,99783.72
2018-08-24T21:37:47.520Z,99778.63
2018-08-24T21:43:02.946Z,99780.23
2018-08-24T21:45:34.220Z,99780.60
2018-08-24T21:48:05.485Z,99778.63
2018-08-24T21:50:36.495Z,99776.65
2018-08-24T21:53:07.553Z,99782.54
2018-08-24T21:55:38.487Z,99778.95
2018-08-24T21:58:09.659Z,99774.90
2018-08-24T22:00:41.835Z,99776.94
2018-08-24T22:03:14.018Z,99774.30
2018-08-24T22:05:45.273Z,99777.08
2018-08-24T22:08:16.348Z,99778.92
2018-08-24T22:10:47.377Z,99779.56
2018-08-24T22:13:18.551Z,99778.85
2018-08-24T22:15:49.497Z,99786.38
2018-08-24T22:18:20.573Z,99781.44
2018-08-24T22:20:51.534Z,99776.84
2018-08-24T22:23:22.578Z,99772.50
2018-08-24T22:25:53.468Z,99773.44
2018-08-24T22:28:24.519Z,99772.22
2018-08-24T22:30:55.465Z,99768.89
2018-08-24T22:33:26.499Z,99771.03
2018-08-24T22:35:57.481Z,99774.30
2018-08-24T22:38:29.274Z,99779.50
2018-08-24T22:40:59.377Z,99775.10
2018-08-24T22:43:35.489Z,99771.28
2018-08-24T22:46:06.830Z,99775.67
2018-08-24T22:48:38.058Z,99775.10
2018-08-24T22:51:09.349Z,99773.25
2018-08-24T22:53:40.386Z,99777.91
2018-08-24T22:56:11.470Z,99775.72
2018-08-24T22:58:42.539Z,99771.77
2018-08-24T23:01:13.459Z,99763.98
2018-08-24T23:03:44.501Z,99761.95
2018-08-24T23:06:15.470Z,99761.56
2018-08-24T23:08:46.471Z,99762.06
2018-08-24T23:11:17.501Z,99751.16
2018-08-24T23:13:48.445Z,99745.69
2018-08-24T23:16:19.493Z,99751.98
2018-08-24T23:18:50.497Z,99751.63
2018-08-24T23:21:21.717Z,99747.33
2018-08-24T23:23:52.557Z,99751.34
2018-08-24T23:29:10.476Z,99748.53
2018-08-24T23:31:41.496Z,99759.58
2018-08-24T23:34:12.621Z,99750.16
2018-08-24T23:36:43.496Z,99763.80
2018-08-24T23:39:14.490Z,99764.73
2018-08-24T23:41:45.492Z,99762.31
2018-08-24T23:44:16.594Z,99766.22
2018-08-24T23:46:47.544Z,99772.32
2018-08-24T23:49:19.183Z,99770.40
2018-08-24T23:51:50.384Z,99767.16
2018-08-24T23:54:21.487Z,99759.22
2018-08-24T23:56:53.373Z,99758.58
2018-08-24T23:59:24.526Z,99751.59
